sensor_id;sensor_type;location;lat;lon;timestamp;temperature;humidity
64874;HTU21D;51367;45.204;38.576;2023-09-07T00:01:30;18.11;65.49
64874;HTU21D;51367;45.204;38.576;2023-09-07T00:03:56;18.08;65.52
64874;HTU21D;51367;45.204;38.576;2023-09-07T00:06:22;18.06;65.56
64874;HTU21D;51367;45.204;38.576;2023-09-07T00:08:48;18.03;65.60
64874;HTU21D;51367;45.204;38.576;2023-09-07T00:11:14;18.00;65.65
64874;HTU21D;51367;45.204;38.576;2023-09-07T00:13:40;17.96;65.70
64874;HTU21D;51367;45.204;38.576;2023-09-07T00:16:06;17.96;65.76
64874;HTU21D;51367;45.204;38.576;2023-09-07T00:18:33;17.92;65.82
64874;HTU21D;51367;45.204;38.576;2023-09-07T00:20:59;17.88;65.89
64874;HTU21D;51367;45.204;38.576;2023-09-07T00:23:26;17.87;65.95
64874;HTU21D;51367;45.204;38.576;2023-09-07T00:25:52;17.83;66.01
64874;HTU21D;51367;45.204;38.576;2023-09-07T00:28:17;17.83;66.04
64874;HTU21D;51367;45.204;38.576;2023-09-07T00:30:43;17.80;66.07
64874;HTU21D;51367;45.204;38.576;2023-09-07T00:33:10;17.79;66.12
64874;HTU21D;51367;45.204;38.576;2023-09-07T00:35:36;17.78;66.16
64874;HTU21D;51367;45.204;38.576;2023-09-07T00:38:03;17.74;66.23
64874;HTU21D;51367;45.204;38.576;2023-09-07T00:40:30;17.73;66.27
64874;HTU21D;51367;45.204;38.576;2023-09-07T00:42:56;17.72;66.29
64874;HTU21D;51367;45.204;38.576;2023-09-07T00:45:22;17.68;66.35
64874;HTU21D;51367;45.204;38.576;2023-09-07T00:47:48;17.66;66.39
64874;HTU21D;51367;45.204;38.576;2023-09-07T00:50:14;17.63;66.43
64874;HTU21D;51367;45.204;38.576;2023-09-07T00:52:42;17.60;66.46
64874;HTU21D;51367;45.204;38.576;2023-09-07T00:55:09;17.59;66.53
64874;HTU21D;51367;45.204;38.576;2023-09-07T00:57:37;17.54;66.58
64874;HTU21D;51367;45.204;38.576;2023-09-07T01:00:06;17.48;66.69
64874;HTU21D;51367;45.204;38.576;2023-09-07T01:02:33;17.44;66.74
64874;HTU21D;51367;45.204;38.576;2023-09-07T01:05:01;17.40;66.83
64874;HTU21D;51367;45.204;38.576;2023-09-07T01:07:53;17.35;67.04
64874;HTU21D;51367;45.204;38.576;2023-09-07T01:10:20;17.31;66.92
64874;HTU21D;51367;45.204;38.576;2023-09-07T01:12:47;17.29;67.00
64874;HTU21D;51367;45.204;38.576;2023-09-07T01:15:13;17.25;67.05
64874;HTU21D;51367;45.204;38.576;2023-09-07T01:17:40;17.21;67.11
64874;HTU21D;51367;45.204;38.576;2023-09-07T01:20:07;17.19;67.20
64874;HTU21D;51367;45.204;38.576;2023-09-07T01:22:36;17.16;67.24
64874;HTU21D;51367;45.204;38.576;2023-09-07T01:25:05;17.11;67.31
64874;HTU21D;51367;45.204;38.576;2023-09-07T01:27:33;17.08;67.37
64874;HTU21D;51367;45.204;38.576;2023-09-07T01:29:59;17.07;67.42
64874;HTU21D;51367;45.204;38.576;2023-09-07T01:32:25;17.04;67.47
64874;HTU21D;51367;45.204;38.576;2023-09-07T01:34:55;17.01;67.52
64874;HTU21D;51367;45.204;38.576;2023-09-07T01:37:23;17.00;67.53
64874;HTU21D;51367;45.204;38.576;2023-09-07T01:39:49;16.98;67.59
64874;HTU21D;51367;45.204;38.576;2023-09-07T01:42:15;16.95;67.61
64874;HTU21D;51367;45.204;38.576;2023-09-07T01:44:41;16.93;67.62
64874;HTU21D;51367;45.204;38.576;2023-09-07T01:47:09;16.92;67.68
64874;HTU21D;51367;45.204;38.576;2023-09-07T01:49:35;16.90;67.69
64874;HTU21D;51367;45.204;38.576;2023-09-07T01:52:01;16.87;67.72
64874;HTU21D;51367;45.204;38.576;2023-09-07T01:54:27;16.85;67.78
64874;HTU21D;51367;45.204;38.576;2023-09-07T01:56:53;16.81;67.83
64874;HTU21D;51367;45.204;38.576;2023-09-07T01:59:19;16.79;67.88
64874;HTU21D;51367;45.204;38.576;2023-09-07T02:01:45;16.75;67.93
64874;HTU21D;51367;45.204;38.576;2023-09-07T02:04:11;16.72;67.97
64874;HTU21D;51367;45.204;38.576;2023-09-07T02:06:37;16.69;68.01
64874;HTU21D;51367;45.204;38.576;2023-09-07T02:09:03;16.65;68.07
64874;HTU21D;51367;45.204;38.576;2023-09-07T02:11:29;16.62;68.11
64874;HTU21D;51367;45.204;38.576;2023-09-07T02:13:55;16.56;68.17
64874;HTU21D;51367;45.204;38.576;2023-09-07T02:16:21;16.51;68.25
64874;HTU21D;51367;45.204;38.576;2023-09-07T02:18:49;16.47;68.36
64874;HTU21D;51367;45.204;38.576;2023-09-07T02:21:16;16.43;68.42
64874;HTU21D;51367;45.204;38.576;2023-09-07T02:23:42;16.40;68.49
64874;HTU21D;51367;45.204;38.576;2023-09-07T02:26:08;16.33;68.55
64874;HTU21D;51367;45.204;38.576;2023-09-07T02:28:34;16.26;68.69
64874;HTU21D;51367;45.204;38.576;2023-09-07T02:31:05;16.19;68.88
64874;HTU21D;51367;45.204;38.576;2023-09-07T02:33:32;16.11;69.00
64874;HTU21D;51367;45.204;38.576;2023-09-07T02:35:58;16.05;69.10
64874;HTU21D;51367;45.204;38.576;2023-09-07T02:38:25;16.01;69.18
64874;HTU21D;51367;45.204;38.576;2023-09-07T02:40:52;15.97;69.24
64874;HTU21D;51367;45.204;38.576;2023-09-07T02:43:18;15.93;69.29
64874;HTU21D;51367;45.204;38.576;2023-09-07T02:45:44;15.92;69.35
64874;HTU21D;51367;45.204;38.576;2023-09-07T02:48:10;15.92;69.36
64874;HTU21D;51367;45.204;38.576;2023-09-07T02:50:39;15.92;69.35
64874;HTU21D;51367;45.204;38.576;2023-09-07T02:53:06;15.93;69.35
64874;HTU21D;51367;45.204;38.576;2023-09-07T02:55:33;15.93;69.32
64874;HTU21D;51367;45.204;38.576;2023-09-07T02:58:03;15.92;69.31
64874;HTU21D;51367;45.204;38.576;2023-09-07T03:00:29;15.92;69.32
64874;HTU21D;51367;45.204;38.576;2023-09-07T03:02:55;15.89;69.36
64874;HTU21D;51367;45.204;38.576;2023-09-07T03:05:22;15.86;69.42
64874;HTU21D;51367;45.204;38.576;2023-09-07T03:07:49;15.82;69.52
64874;HTU21D;51367;45.204;38.576;2023-09-07T03:10:17;15.76;69.61
64874;HTU21D;51367;45.204;38.576;2023-09-07T03:12:44;15.72;69.74
64874;HTU21D;51367;45.204;38.576;2023-09-07T03:15:11;15.70;69.82
64874;HTU21D;51367;45.204;38.576;2023-09-07T03:17:39;15.70;69.89
64874;HTU21D;51367;45.204;38.576;2023-09-07T03:20:05;15.71;69.96
64874;HTU21D;51367;45.204;38.576;2023-09-07T03:22:46;15.74;69.95
64874;HTU21D;51367;45.204;38.576;2023-09-07T03:25:13;15.81;69.98
64874;HTU21D;51367;45.204;38.576;2023-09-07T03:27:40;15.85;69.98
64874;HTU21D;51367;45.204;38.576;2023-09-07T03:30:08;15.90;69.98
64874;HTU21D;51367;45.204;38.576;2023-09-07T03:32:35;15.96;70.00
64874;HTU21D;51367;45.204;38.576;2023-09-07T03:35:04;16.03;69.97
64874;HTU21D;51367;45.204;38.576;2023-09-07T03:37:35;16.14;69.93
64874;HTU21D;51367;45.204;38.576;2023-09-07T03:40:03;16.25;69.94
64874;HTU21D;51367;45.204;38.576;2023-09-07T03:42:31;16.35;70.14
64874;HTU21D;51367;45.204;38.576;2023-09-07T03:44:57;16.48;70.39
64874;HTU21D;51367;45.204;38.576;2023-09-07T03:47:24;16.64;70.73
64874;HTU21D;51367;45.204;38.576;2023-09-07T03:49:55;16.87;71.04
64874;HTU21D;51367;45.204;38.576;2023-09-07T03:52:25;17.22;70.87
64874;HTU21D;51367;45.204;38.576;2023-09-07T03:54:55;17.62;70.26
64874;HTU21D;51367;45.204;38.576;2023-09-07T03:57:22;17.94;69.67
64874;HTU21D;51367;45.204;38.576;2023-09-07T03:59:48;18.20;69.31
64874;HTU21D;51367;45.204;38.576;2023-09-07T04:02:14;18.38;69.10
64874;HTU21D;51367;45.204;38.576;2023-09-07T04:04:40;18.52;68.97
64874;HTU21D;51367;45.204;38.576;2023-09-07T04:07:06;18.73;68.97
64874;HTU21D;51367;45.204;38.576;2023-09-07T04:09:32;18.99;68.73
64874;HTU21D;51367;45.204;38.576;2023-09-07T04:11:58;19.32;68.37
64874;HTU21D;51367;45.204;38.576;2023-09-07T04:14:24;19.63;67.92
64874;HTU21D;51367;45.204;38.576;2023-09-07T04:16:50;19.89;67.63
64874;HTU21D;51367;45.204;38.576;2023-09-07T04:19:17;20.13;67.60
64874;HTU21D;51367;45.204;38.576;2023-09-07T04:21:43;20.32;67.40
64874;HTU21D;51367;45.204;38.576;2023-09-07T04:24:09;20.46;67.35
64874;HTU21D;51367;45.204;38.576;2023-09-07T04:26:37;20.73;67.04
64874;HTU21D;51367;45.204;38.576;2023-09-07T04:29:03;21.07;66.12
64874;HTU21D;51367;45.204;38.576;2023-09-07T04:31:29;21.35;65.24
64874;HTU21D;51367;45.204;38.576;2023-09-07T04:33:57;21.50;64.77
64874;HTU21D;51367;45.204;38.576;2023-09-07T04:36:23;21.59;64.66
64874;HTU21D;51367;45.204;38.576;2023-09-07T04:38:49;21.62;64.68
64874;HTU21D;51367;45.204;38.576;2023-09-07T04:41:15;21.62;64.87
64874;HTU21D;51367;45.204;38.576;2023-09-07T04:43:42;21.64;64.94
64874;HTU21D;51367;45.204;38.576;2023-09-07T04:46:13;21.67;65.44
64874;HTU21D;51367;45.204;38.576;2023-09-07T04:48:40;21.85;65.59
64874;HTU21D;51367;45.204;38.576;2023-09-07T04:51:08;22.19;64.87
64874;HTU21D;51367;45.204;38.576;2023-09-07T04:53:36;22.40;63.94
64874;HTU21D;51367;45.204;38.576;2023-09-07T04:56:05;22.50;63.45
64874;HTU21D;51367;45.204;38.576;2023-09-07T04:58:31;22.44;63.14
64874;HTU21D;51367;45.204;38.576;2023-09-07T05:01:08;22.35;63.12
64874;HTU21D;51367;45.204;38.576;2023-09-07T05:03:35;22.27;63.22
64874;HTU21D;51367;45.204;38.576;2023-09-07T05:06:02;22.19;63.23
64874;HTU21D;51367;45.204;38.576;2023-09-07T05:08:31;22.10;63.48
64874;HTU21D;51367;45.204;38.576;2023-09-07T05:10:59;22.07;63.39
64874;HTU21D;51367;45.204;38.576;2023-09-07T05:13:26;22.02;63.46
64874;HTU21D;51367;45.204;38.576;2023-09-07T05:15:54;22.02;63.35
64874;HTU21D;51367;45.204;38.576;2023-09-07T05:18:21;22.06;63.24
64874;HTU21D;51367;45.204;38.576;2023-09-07T05:20:47;22.10;63.14
64874;HTU21D;51367;45.204;38.576;2023-09-07T05:23:19;22.14;63.13
64874;HTU21D;51367;45.204;38.576;2023-09-07T05:25:47;22.22;63.08
64874;HTU21D;51367;45.204;38.576;2023-09-07T05:28:14;22.36;62.95
64874;HTU21D;51367;45.204;38.576;2023-09-07T05:30:41;22.47;62.54
64874;HTU21D;51367;45.204;38.576;2023-09-07T05:33:09;22.47;62.45
64874;HTU21D;51367;45.204;38.576;2023-09-07T05:35:35;22.47;62.51
64874;HTU21D;51367;45.204;38.576;2023-09-07T05:38:02;22.53;62.62
64874;HTU21D;51367;45.204;38.576;2023-09-07T05:40:28;22.61;62.50
64874;HTU21D;51367;45.204;38.576;2023-09-07T05:42:54;22.68;62.42
64874;HTU21D;51367;45.204;38.576;2023-09-07T05:45:20;22.78;62.26
64874;HTU21D;51367;45.204;38.576;2023-09-07T05:47:46;22.88;62.11
64874;HTU21D;51367;45.204;38.576;2023-09-07T05:50:12;22.99;61.96
64874;HTU21D;51367;45.204;38.576;2023-09-07T05:52:38;23.10;61.75
64874;HTU21D;51367;45.204;38.576;2023-09-07T05:55:05;23.20;61.73
64874;HTU21D;51367;45.204;38.576;2023-09-07T05:57:31;23.34;61.63
64874;HTU21D;51367;45.204;38.576;2023-09-07T05:59:57;23.43;61.60
64874;HTU21D;51367;45.204;38.576;2023-09-07T06:02:23;23.60;61.63
64874;HTU21D;51367;45.204;38.576;2023-09-07T06:04:49;23.87;61.52
64874;HTU21D;51367;45.204;38.576;2023-09-07T06:07:15;24.11;61.36
64874;HTU21D;51367;45.204;38.576;2023-09-07T06:09:41;24.33;61.39
64874;HTU21D;51367;45.204;38.576;2023-09-07T06:12:07;24.60;61.26
64874;HTU21D;51367;45.204;38.576;2023-09-07T06:14:34;24.95;61.07
64874;HTU21D;51367;45.204;38.576;2023-09-07T06:17:00;25.36;59.86
64874;HTU21D;51367;45.204;38.576;2023-09-07T06:19:25;25.71;59.13
64874;HTU21D;51367;45.204;38.576;2023-09-07T06:21:51;25.97;58.37
64874;HTU21D;51367;45.204;38.576;2023-09-07T06:24:17;26.15;58.12
64874;HTU21D;51367;45.204;38.576;2023-09-07T06:26:43;26.27;58.31
64874;HTU21D;51367;45.204;38.576;2023-09-07T06:29:10;26.57;58.82
64874;HTU21D;51367;45.204;38.576;2023-09-07T06:31:36;26.90;59.03
64874;HTU21D;51367;45.204;38.576;2023-09-07T06:34:02;27.27;58.58
64874;HTU21D;51367;45.204;38.576;2023-09-07T06:36:30;27.64;58.42
64874;HTU21D;51367;45.204;38.576;2023-09-07T06:38:57;28.11;57.35
64874;HTU21D;51367;45.204;38.576;2023-09-07T06:41:23;28.37;56.22
64874;HTU21D;51367;45.204;38.576;2023-09-07T06:43:48;28.38;55.37
64874;HTU21D;51367;45.204;38.576;2023-09-07T06:46:15;28.33;54.78
64874;HTU21D;51367;45.204;38.576;2023-09-07T06:48:41;28.29;54.23
64874;HTU21D;51367;45.204;38.576;2023-09-07T06:51:07;28.20;53.43
64874;HTU21D;51367;45.204;38.576;2023-09-07T06:53:35;28.13;53.84
64874;HTU21D;51367;45.204;38.576;2023-09-07T06:56:02;28.14;53.86
64874;HTU21D;51367;45.204;38.576;2023-09-07T06:58:29;28.26;53.35
64874;HTU21D;51367;45.204;38.576;2023-09-07T07:00:58;28.32;53.18
64874;HTU21D;51367;45.204;38.576;2023-09-07T07:03:27;28.31;52.69
64874;HTU21D;51367;45.204;38.576;2023-09-07T07:05:53;28.28;52.43
64874;HTU21D;51367;45.204;38.576;2023-09-07T07:08:19;28.33;52.43
64874;HTU21D;51367;45.204;38.576;2023-09-07T07:10:45;28.45;52.19
64874;HTU21D;51367;45.204;38.576;2023-09-07T07:13:11;28.47;51.95
64874;HTU21D;51367;45.204;38.576;2023-09-07T07:15:37;28.47;51.65
64874;HTU21D;51367;45.204;38.576;2023-09-07T07:18:04;28.48;52.06
64874;HTU21D;51367;45.204;38.576;2023-09-07T07:20:39;28.60;52.14
64874;HTU21D;51367;45.204;38.576;2023-09-07T07:23:06;28.74;52.22
64874;HTU21D;51367;45.204;38.576;2023-09-07T07:25:34;28.83;51.93
64874;HTU21D;51367;45.204;38.576;2023-09-07T07:28:01;28.93;51.40
64874;HTU21D;51367;45.204;38.576;2023-09-07T07:30:36;29.04;50.54
64874;HTU21D;51367;45.204;38.576;2023-09-07T07:33:03;29.11;50.11
64874;HTU21D;51367;45.204;38.576;2023-09-07T07:35:31;29.15;49.79
64874;HTU21D;51367;45.204;38.576;2023-09-07T07:37:57;29.18;48.76
64874;HTU21D;51367;45.204;38.576;2023-09-07T07:40:23;29.11;48.27
64874;HTU21D;51367;45.204;38.576;2023-09-07T07:42:51;29.01;47.94
64874;HTU21D;51367;45.204;38.576;2023-09-07T07:45:19;28.84;47.37
64874;HTU21D;51367;45.204;38.576;2023-09-07T07:47:46;28.80;47.58
64874;HTU21D;51367;45.204;38.576;2023-09-07T07:50:12;28.82;47.60
64874;HTU21D;51367;45.204;38.576;2023-09-07T07:52:38;28.85;47.81
64874;HTU21D;51367;45.204;38.576;2023-09-07T07:55:04;28.95;47.80
64874;HTU21D;51367;45.204;38.576;2023-09-07T07:57:32;29.09;46.74
64874;HTU21D;51367;45.204;38.576;2023-09-07T07:59:58;29.16;46.62
64874;HTU21D;51367;45.204;38.576;2023-09-07T08:02:25;29.26;46.63
64874;HTU21D;51367;45.204;38.576;2023-09-07T08:04:51;29.39;46.07
64874;HTU21D;51367;45.204;38.576;2023-09-07T08:07:17;29.48;45.87
64874;HTU21D;51367;45.204;38.576;2023-09-07T08:09:43;29.50;45.33
64874;HTU21D;51367;45.204;38.576;2023-09-07T08:12:09;29.52;44.80
64874;HTU21D;51367;45.204;38.576;2023-09-07T08:14:36;29.52;44.45
64874;HTU21D;51367;45.204;38.576;2023-09-07T08:17:03;29.53;44.14
64874;HTU21D;51367;45.204;38.576;2023-09-07T08:19:29;29.54;44.22
64874;HTU21D;51367;45.204;38.576;2023-09-07T08:21:57;29.63;44.24
64874;HTU21D;51367;45.204;38.576;2023-09-07T08:24:24;29.63;43.93
64874;HTU21D;51367;45.204;38.576;2023-09-07T08:26:50;29.53;43.80
64874;HTU21D;51367;45.204;38.576;2023-09-07T08:29:17;29.44;43.71
64874;HTU21D;51367;45.204;38.576;2023-09-07T08:31:46;29.41;43.99
64874;HTU21D;51367;45.204;38.576;2023-09-07T08:34:14;29.47;43.80
64874;HTU21D;51367;45.204;38.576;2023-09-07T08:36:45;29.39;43.10
64874;HTU21D;51367;45.204;38.576;2023-09-07T08:39:12;29.29;43.33
64874;HTU21D;51367;45.204;38.576;2023-09-07T08:41:42;29.20;42.88
64874;HTU21D;51367;45.204;38.576;2023-09-07T08:44:16;29.15;42.71
64874;HTU21D;51367;45.204;38.576;2023-09-07T08:46:43;29.08;42.68
64874;HTU21D;51367;45.204;38.576;2023-09-07T08:49:12;29.05;42.58
64874;HTU21D;51367;45.204;38.576;2023-09-07T08:51:39;29.06;42.64
64874;HTU21D;51367;45.204;38.576;2023-09-07T08:54:07;29.07;42.36
64874;HTU21D;51367;45.204;38.576;2023-09-07T08:56:33;29.05;42.12
64874;HTU21D;51367;45.204;38.576;2023-09-07T08:58:59;28.99;41.07
64874;HTU21D;51367;45.204;38.576;2023-09-07T09:01:25;28.90;41.45
64874;HTU21D;51367;45.204;38.576;2023-09-07T09:03:52;28.83;41.75
64874;HTU21D;51367;45.204;38.576;2023-09-07T09:06:19;28.85;41.39
64874;HTU21D;51367;45.204;38.576;2023-09-07T09:11:16;28.88;41.51
64874;HTU21D;51367;45.204;38.576;2023-09-07T09:13:43;28.85;41.52
64874;HTU21D;51367;45.204;38.576;2023-09-07T09:16:10;28.83;41.31
64874;HTU21D;51367;45.204;38.576;2023-09-07T09:18:36;28.80;41.50
64874;HTU21D;51367;45.204;38.576;2023-09-07T09:21:03;28.85;41.55
64874;HTU21D;51367;45.204;38.576;2023-09-07T09:23:36;28.89;40.94
64874;HTU21D;51367;45.204;38.576;2023-09-07T09:26:03;28.94;41.29
64874;HTU21D;51367;45.204;38.576;2023-09-07T09:28:34;29.07;41.13
64874;HTU21D;51367;45.204;38.576;2023-09-07T09:31:01;29.17;41.43
64874;HTU21D;51367;45.204;38.576;2023-09-07T09:33:31;29.29;41.42
64874;HTU21D;51367;45.204;38.576;2023-09-07T09:35:57;29.38;41.26
64874;HTU21D;51367;45.204;38.576;2023-09-07T09:38:24;29.41;40.75
64874;HTU21D;51367;45.204;38.576;2023-09-07T09:40:52;29.46;41.17
64874;HTU21D;51367;45.204;38.576;2023-09-07T09:43:20;29.53;40.63
64874;HTU21D;51367;45.204;38.576;2023-09-07T09:45:47;29.54;40.43
64874;HTU21D;51367;45.204;38.576;2023-09-07T09:48:16;29.60;40.52
64874;HTU21D;51367;45.204;38.576;2023-09-07T09:50:44;29.67;40.12
64874;HTU21D;51367;45.204;38.576;2023-09-07T09:53:12;29.71;39.97
64874;HTU21D;51367;45.204;38.576;2023-09-07T09:55:41;29.68;40.23
64874;HTU21D;51367;45.204;38.576;2023-09-07T09:58:07;29.68;40.32
64874;HTU21D;51367;45.204;38.576;2023-09-07T10:00:33;29.74;40.20
64874;HTU21D;51367;45.204;38.576;2023-09-07T10:05:49;29.96;40.48
64874;HTU21D;51367;45.204;38.576;2023-09-07T10:08:17;30.05;39.55
64874;HTU21D;51367;45.204;38.576;2023-09-07T10:10:46;30.05;39.36
64874;HTU21D;51367;45.204;38.576;2023-09-07T10:13:16;30.05;38.92
64874;HTU21D;51367;45.204;38.576;2023-09-07T10:16:05;30.00;39.15
64874;HTU21D;51367;45.204;38.576;2023-09-07T10:18:36;29.98;39.49
64874;HTU21D;51367;45.204;38.576;2023-09-07T10:21:03;30.03;39.22
64874;HTU21D;51367;45.204;38.576;2023-09-07T10:23:39;30.06;39.22
64874;HTU21D;51367;45.204;38.576;2023-09-07T10:26:16;30.10;38.59
64874;HTU21D;51367;45.204;38.576;2023-09-07T10:28:45;30.13;38.82
64874;HTU21D;51367;45.204;38.576;2023-09-07T10:31:19;30.08;38.63
64874;HTU21D;51367;45.204;38.576;2023-09-07T10:33:46;29.98;38.43
64874;HTU21D;51367;45.204;38.576;2023-09-07T10:36:25;29.93;38.19
64874;HTU21D;51367;45.204;38.576;2023-09-07T10:38:53;29.95;38.70
64874;HTU21D;51367;45.204;38.576;2023-09-07T10:41:20;30.01;38.72
64874;HTU21D;51367;45.204;38.576;2023-09-07T10:43:51;30.06;38.65
64874;HTU21D;51367;45.204;38.576;2023-09-07T10:46:21;30.10;38.28
64874;HTU21D;51367;45.204;38.576;2023-09-07T10:48:51;30.13;38.03
64874;HTU21D;51367;45.204;38.576;2023-09-07T10:51:20;30.15;38.15
64874;HTU21D;51367;45.204;38.576;2023-09-07T10:53:47;30.17;37.95
64874;HTU21D;51367;45.204;38.576;2023-09-07T10:56:13;30.20;38.26
64874;HTU21D;51367;45.204;38.576;2023-09-07T10:58:39;30.30;38.37
64874;HTU21D;51367;45.204;38.576;2023-09-07T11:01:08;30.39;38.49
64874;HTU21D;51367;45.204;38.576;2023-09-07T11:03:34;30.48;38.44
64874;HTU21D;51367;45.204;38.576;2023-09-07T11:06:31;30.54;36.26
64874;HTU21D;51367;45.204;38.576;2023-09-07T11:09:01;30.54;38.22
64874;HTU21D;51367;45.204;38.576;2023-09-07T11:11:31;30.55;38.24
64874;HTU21D;51367;45.204;38.576;2023-09-07T11:13:57;30.60;38.31
64874;HTU21D;51367;45.204;38.576;2023-09-07T11:16:25;30.69;37.81
64874;HTU21D;51367;45.204;38.576;2023-09-07T11:18:52;30.77;37.60
64874;HTU21D;51367;45.204;38.576;2023-09-07T11:21:20;30.78;37.63
64874;HTU21D;51367;45.204;38.576;2023-09-07T11:23:46;30.76;37.60
64874;HTU21D;51367;45.204;38.576;2023-09-07T11:26:12;30.66;37.60
64874;HTU21D;51367;45.204;38.576;2023-09-07T11:28:39;30.59;38.02
64874;HTU21D;51367;45.204;38.576;2023-09-07T11:31:06;30.54;38.17
64874;HTU21D;51367;45.204;38.576;2023-09-07T11:33:33;30.46;38.44
64874;HTU21D;51367;45.204;38.576;2023-09-07T11:36:00;30.39;38.55
64874;HTU21D;51367;45.204;38.576;2023-09-07T11:38:34;30.44;38.52
64874;HTU21D;51367;45.204;38.576;2023-09-07T11:41:00;30.59;38.61
64874;HTU21D;51367;45.204;38.576;2023-09-07T11:43:31;30.75;38.43
64874;HTU21D;51367;45.204;38.576;2023-09-07T11:46:18;30.84;38.06
64874;HTU21D;51367;45.204;38.576;2023-09-07T11:48:44;30.76;37.98
64874;HTU21D;51367;45.204;38.576;2023-09-07T11:51:10;30.61;38.19
64874;HTU21D;51367;45.204;38.576;2023-09-07T11:53:36;30.55;38.57
64874;HTU21D;51367;45.204;38.576;2023-09-07T11:56:01;30.68;38.65
64874;HTU21D;51367;45.204;38.576;2023-09-07T11:58:28;30.86;38.30
64874;HTU21D;51367;45.204;38.576;2023-09-07T12:00:54;30.92;37.89
64874;HTU21D;51367;45.204;38.576;2023-09-07T12:03:20;30.84;37.90
64874;HTU21D;51367;45.204;38.576;2023-09-07T12:05:46;30.84;38.20
64874;HTU21D;51367;45.204;38.576;2023-09-07T12:08:11;30.97;37.95
64874;HTU21D;51367;45.204;38.576;2023-09-07T12:10:37;31.02;37.90
64874;HTU21D;51367;45.204;38.576;2023-09-07T12:13:03;30.94;37.79
64874;HTU21D;51367;45.204;38.576;2023-09-07T12:15:29;30.74;38.10
64874;HTU21D;51367;45.204;38.576;2023-09-07T12:17:55;30.60;38.07
64874;HTU21D;51367;45.204;38.576;2023-09-07T12:20:21;30.47;38.20
64874;HTU21D;51367;45.204;38.576;2023-09-07T12:22:47;30.38;38.41
64874;HTU21D;51367;45.204;38.576;2023-09-07T12:25:14;30.46;38.47
64874;HTU21D;51367;45.204;38.576;2023-09-07T12:27:41;30.60;38.17
64874;HTU21D;51367;45.204;38.576;2023-09-07T12:30:09;30.69;37.88
64874;HTU21D;51367;45.204;38.576;2023-09-07T12:32:39;30.76;37.64
64874;HTU21D;51367;45.204;38.576;2023-09-07T12:35:06;30.79;37.46
64874;HTU21D;51367;45.204;38.576;2023-09-07T12:37:35;30.81;37.39
64874;HTU21D;51367;45.204;38.576;2023-09-07T12:40:02;30.81;37.05
64874;HTU21D;51367;45.204;38.576;2023-09-07T12:42:31;30.74;37.27
64874;HTU21D;51367;45.204;38.576;2023-09-07T12:44:57;30.52;37.25
64874;HTU21D;51367;45.204;38.576;2023-09-07T12:47:23;30.23;37.74
64874;HTU21D;51367;45.204;38.576;2023-09-07T12:49:49;30.02;38.24
64874;HTU21D;51367;45.204;38.576;2023-09-07T12:52:15;29.90;38.64
64874;HTU21D;51367;45.204;38.576;2023-09-07T12:54:41;29.81;39.01
64874;HTU21D;51367;45.204;38.576;2023-09-07T12:57:07;29.86;39.20
64874;HTU21D;51367;45.204;38.576;2023-09-07T12:59:33;29.96;39.28
64874;HTU21D;51367;45.204;38.576;2023-09-07T13:01:58;30.07;39.30
64874;HTU21D;51367;45.204;38.576;2023-09-07T13:04:24;30.12;39.17
64874;HTU21D;51367;45.204;38.576;2023-09-07T13:06:50;30.11;39.09
64874;HTU21D;51367;45.204;38.576;2023-09-07T13:09:16;30.08;39.36
64874;HTU21D;51367;45.204;38.576;2023-09-07T13:11:42;30.10;39.58
64874;HTU21D;51367;45.204;38.576;2023-09-07T13:14:08;30.17;39.61
64874;HTU21D;51367;45.204;38.576;2023-09-07T13:16:34;30.20;39.66
64874;HTU21D;51367;45.204;38.576;2023-09-07T13:19:00;30.22;39.47
64874;HTU21D;51367;45.204;38.576;2023-09-07T13:21:26;30.13;39.14
64874;HTU21D;51367;45.204;38.576;2023-09-07T13:23:52;30.01;39.48
64874;HTU21D;51367;45.204;38.576;2023-09-07T13:26:18;29.89;39.87
64874;HTU21D;51367;45.204;38.576;2023-09-07T13:28:44;29.80;40.06
64874;HTU21D;51367;45.204;38.576;2023-09-07T13:31:10;29.75;40.22
64874;HTU21D;51367;45.204;38.576;2023-09-07T13:33:36;29.73;40.40
64874;HTU21D;51367;45.204;38.576;2023-09-07T13:36:02;29.71;40.46
64874;HTU21D;51367;45.204;38.576;2023-09-07T13:38:28;29.65;40.54
64874;HTU21D;51367;45.204;38.576;2023-09-07T13:40:54;29.61;40.62
64874;HTU21D;51367;45.204;38.576;2023-09-07T13:43:19;29.52;40.71
64874;HTU21D;51367;45.204;38.576;2023-09-07T13:45:45;29.44;40.80
64874;HTU21D;51367;45.204;38.576;2023-09-07T13:48:11;29.38;40.98
64874;HTU21D;51367;45.204;38.576;2023-09-07T13:50:37;29.33;41.05
64874;HTU21D;51367;45.204;38.576;2023-09-07T13:53:03;29.29;41.05
64874;HTU21D;51367;45.204;38.576;2023-09-07T13:55:29;29.21;41.00
64874;HTU21D;51367;45.204;38.576;2023-09-07T13:57:55;29.12;41.21
64874;HTU21D;51367;45.204;38.576;2023-09-07T14:00:21;29.09;41.41
64874;HTU21D;51367;45.204;38.576;2023-09-07T14:02:47;29.08;41.30
64874;HTU21D;51367;45.204;38.576;2023-09-07T14:05:13;29.04;41.49
64874;HTU21D;51367;45.204;38.576;2023-09-07T14:07:39;29.01;41.49
64874;HTU21D;51367;45.204;38.576;2023-09-07T14:10:05;28.94;41.50
64874;HTU21D;51367;45.204;38.576;2023-09-07T14:12:31;28.89;41.68
64874;HTU21D;51367;45.204;38.576;2023-09-07T14:14:57;28.82;41.87
64874;HTU21D;51367;45.204;38.576;2023-09-07T14:17:23;28.77;41.98
64874;HTU21D;51367;45.204;38.576;2023-09-07T14:19:49;28.71;42.08
64874;HTU21D;51367;45.204;38.576;2023-09-07T14:22:14;28.63;42.19
64874;HTU21D;51367;45.204;38.576;2023-09-07T14:24:40;28.57;42.35
64874;HTU21D;51367;45.204;38.576;2023-09-07T14:27:06;28.50;42.54
64874;HTU21D;51367;45.204;38.576;2023-09-07T14:29:35;28.50;42.73
64874;HTU21D;51367;45.204;38.576;2023-09-07T14:32:03;28.45;42.89
64874;HTU21D;51367;45.204;38.576;2023-09-07T14:34:29;28.33;43.10
64874;HTU21D;51367;45.204;38.576;2023-09-07T14:36:55;28.20;43.27
64874;HTU21D;51367;45.204;38.576;2023-09-07T14:39:21;28.11;43.44
64874;HTU21D;51367;45.204;38.576;2023-09-07T14:41:50;28.02;43.47
64874;HTU21D;51367;45.204;38.576;2023-09-07T14:44:19;27.98;43.59
64874;HTU21D;51367;45.204;38.576;2023-09-07T14:46:45;27.96;43.67
64874;HTU21D;51367;45.204;38.576;2023-09-07T14:49:12;27.95;43.69
64874;HTU21D;51367;45.204;38.576;2023-09-07T14:51:38;27.87;43.80
64874;HTU21D;51367;45.204;38.576;2023-09-07T14:54:04;27.80;43.96
64874;HTU21D;51367;45.204;38.576;2023-09-07T14:56:30;27.74;44.07
64874;HTU21D;51367;45.204;38.576;2023-09-07T14:59:01;27.70;44.13
64874;HTU21D;51367;45.204;38.576;2023-09-07T15:01:27;27.67;44.19
64874;HTU21D;51367;45.204;38.576;2023-09-07T15:03:53;27.61;44.19
64874;HTU21D;51367;45.204;38.576;2023-09-07T15:06:19;27.51;44.35
64874;HTU21D;51367;45.204;38.576;2023-09-07T15:08:45;27.40;44.50